Time;durP1;ratioP1;P1;durP2;ratioP2;P2;SDS_P1;SDS_P2;PMS_P1;PMS_P2;Temp;Humidity;BMP_temperature;BMP_pressure;BME280_temperature;BME280_humidity;BME280_pressure;Samples;Min_cycle;Max_cycle;Signal;HPM_P1;HPM_P2
2021/01/16 00:01:54;;;;;;;;;;;;;;;;;;5062646;28;20388;-85
2021/01/16 00:04:20;;;;;;;;;;;;;;;;;;5062981;28;20412;-85
2021/01/16 00:06:47;;;;;;;;;;;;;;;;;;5063829;28;20392;-84
2021/01/16 00:09:13;;;;;;;;;;;;;;;;;;5063530;28;20400;-85
2021/01/16 00:11:39;;;;;;;;;;;;;;;;;;5061833;28;20415;-84
2021/01/16 00:14:06;;;;;;;;;;;;;;;;;;5072880;28;20411;-85
2021/01/16 00:16:32;;;;;;;;;;;;;;;;;;5061886;28;20408;-84
2021/01/16 00:18:59;;;;;;;;;;;;;;;;;;5062484;28;20411;-85
2021/01/16 00:21:25;;;;;;;;;;;;;;;;;;5063014;28;20749;-85
2021/01/16 00:23:51;;;;;;;;;;;;;;;;;;5063542;28;20416;-84
2021/01/16 00:26:18;;;;;;;;;;;;;;;;;;5071885;28;20374;-84
2021/01/16 00:28:44;;;;;;;;;;;;;;;;;;5069773;28;20826;-85
2021/01/16 00:31:10;;;;;;;;;;;;;;;;;;5062200;28;20399;-84
2021/01/16 00:33:37;;;;;;;;;;;;;;;;;;5061496;28;20416;-84
2021/01/16 00:36:03;;;;;;;;;;;;;;;;;;5061158;28;20408;-84
2021/01/16 00:38:29;;;;;;;;;;;;;;;;;;5063175;28;20434;-84
2021/01/16 00:40:56;;;;;;;;;;;;;;;;;;5074539;28;20386;-84
2021/01/16 00:43:22;;;;;;;;;;;;;;;;;;5061731;28;20405;-84
2021/01/16 00:45:49;;;;;;;;;;;;;;;;;;5062381;28;20387;-85
2021/01/16 00:48:15;;;;;;;;;;;;;;;;;;5062689;28;20393;-85
2021/01/16 00:50:42;;;;;;;;;;;;;;;;;;5067675;28;20378;-85
2021/01/16 00:53:08;;;;;;;;;;;;;;;;;;5082767;28;20390;-85
2021/01/16 00:55:35;;;;;;;;;;;;;;;;;;5077114;28;20426;-85
2021/01/16 00:58:01;;;;;;;;;;;;;;;;;;5062225;28;20865;-85
2021/01/16 01:00:28;;;;;;;;;;;;;;;;;;5076111;28;20381;-85
2021/01/16 01:02:54;;;;;;;;;;;;;;;;;;5048683;28;20387;-85
2021/01/16 01:05:21;;;;;;;;;;;;;;;;;;5041261;28;20772;-84
2021/01/16 01:07:47;;;;;;;;;;;;;;;;;;5043133;28;20413;-85
2021/01/16 01:10:13;;;;;;;;;;;;;;;;;;5057009;28;20389;-85
2021/01/16 01:12:40;;;;;;;;;;;;;;;;;;5062915;28;20392;-85
2021/01/16 01:15:06;;;;;;;;;;;;;;;;;;5064341;28;20865;-85
2021/01/16 01:17:32;;;;;;;;;;;;;;;;;;5063620;28;20377;-85
2021/01/16 01:19:59;;;;;;;;;;;;;;;;;;5066896;28;20380;-84
2021/01/16 01:22:30;;;;;;;;;;;;;;;;;;5068366;28;20400;-85
2021/01/16 01:24:57;;;;;;;;;;;;;;;;;;5071779;28;20411;-85
2021/01/16 01:27:23;;;;;;;;;;;;;;;;;;5077413;28;20397;-85
2021/01/16 01:29:49;;;;;;;;;;;;;;;;;;5068806;28;20371;-84
2021/01/16 01:32:16;;;;;;;;;;;;;;;;;;5070121;28;20364;-84
2021/01/16 01:34:42;;;;;;;;;;;;;;;;;;5064568;28;20405;-83
2021/01/16 01:37:08;;;;;;;;;;;;;;;;;;5055849;28;20407;-84
2021/01/16 01:39:35;;;;;;;;;;;;;;;;;;5061882;28;20396;-85
2021/01/16 01:42:01;;;;;;;;;;;;;;;;;;5061046;28;20849;-84
2021/01/16 01:44:27;;;;;;;;;;;;;;;;;;5062800;28;20405;-82
2021/01/16 01:46:54;;;;;;;;;;;;;;;;;;5063233;28;20397;-83
2021/01/16 01:49:20;;;;;;;;;;;;;;;;;;5065516;28;20415;-83
2021/01/16 01:51:47;;;;;;;;;;;;;;;;;;5066691;28;20377;-82
2021/01/16 01:54:13;;;;;;;;;;;;;;;;;;5067325;28;20397;-82
2021/01/16 01:56:39;;;;;;;;;;;;;;;;;;5076616;28;20406;-82
2021/01/16 01:59:06;;;;;;;;;;;;;;;;;;5081419;28;20389;-82
2021/01/16 02:01:32;;;;;;;;;;;;;;;;;;5067437;28;20395;-82
2021/01/16 02:03:58;;;;;;;;;;;;;;;;;;5070270;28;20401;-82
2021/01/16 02:06:25;;;;;;;;;;;;;;;;;;5061628;28;20442;-83
2021/01/16 02:08:51;;;;;;;;;;;;;;;;;;5059891;28;20385;-82
2021/01/16 02:11:18;;;;;;;;;;;;;;;;;;5048579;28;20394;-83
2021/01/16 02:13:44;;;;;;;;;;;;;;;;;;5039167;28;20407;-82
2021/01/16 02:16:10;;;;;;;;;;;;;;;;;;5072352;28;20397;-82
2021/01/16 02:18:37;;;;;;;;;;;;;;;;;;5063334;28;20380;-82
2021/01/16 02:21:03;;;;;;;;;;;;;;;;;;5078829;28;20872;-82
2021/01/16 02:23:29;;;;;;;;;;;;;;;;;;5073812;28;20412;-83
2021/01/16 02:25:56;;;;;;;;;;;;;;;;;;5064141;28;20381;-83
2021/01/16 02:28:22;;;;;;;;;;;;;;;;;;5064458;28;20873;-83
2021/01/16 02:30:48;;;;;;;;;;;;;;;;;;5073372;28;20382;-83
2021/01/16 02:33:15;;;;;;;;;;;;;;;;;;5084377;28;20398;-83
2021/01/16 02:35:42;;;;;;;;;;;;;;;;;;5069949;28;20405;-83
2021/01/16 02:38:08;;;;;;;;;;;;;;;;;;5064426;28;20377;-83
2021/01/16 02:40:35;;;;;;;;;;;;;;;;;;5064814;28;20420;-84
2021/01/16 02:43:01;;;;;;;;;;;;;;;;;;5064111;28;20385;-83
2021/01/16 02:45:27;;;;;;;;;;;;;;;;;;5063746;28;20396;-84
2021/01/16 02:47:54;;;;;;;;;;;;;;;;;;5065074;28;20389;-82
2021/01/16 02:50:20;;;;;;;;;;;;;;;;;;5063161;28;20373;-82
2021/01/16 02:52:47;;;;;;;;;;;;;;;;;;5063393;28;20897;-83
2021/01/16 02:55:13;;;;;;;;;;;;;;;;;;5063052;28;20400;-82
2021/01/16 02:57:39;;;;;;;;;;;;;;;;;;5062326;28;20395;-82
2021/01/16 03:00:06;;;;;;;;;;;;;;;;;;5063161;28;20381;-82
2021/01/16 03:02:32;;;;;;;;;;;;;;;;;;5062768;28;20392;-85
2021/01/16 03:04:58;;;;;;;;;;;;;;;;;;5062488;28;20407;-85
2021/01/16 03:07:25;;;;;;;;;;;;;;;;;;5063631;28;20853;-85
2021/01/16 03:09:51;;;;;;;;;;;;;;;;;;5062799;28;20377;-85
2021/01/16 03:12:17;;;;;;;;;;;;;;;;;;5063398;28;20419;-85
2021/01/16 03:14:44;;;;;;;;;;;;;;;;;;5064230;28;20412;-82
2021/01/16 03:17:10;;;;;;;;;;;;;;;;;;5068798;28;20382;-83
2021/01/16 03:19:37;;;;;;;;;;;;;;;;;;5068964;28;20389;-83
2021/01/16 03:22:03;;;;;;;;;;;;;;;;;;5064321;28;20419;-83
2021/01/16 03:24:29;;;;;;;;;;;;;;;;;;5064944;28;20397;-83
2021/01/16 03:26:56;;;;;;;;;;;;;;;;;;5063681;28;20388;-82
2021/01/16 03:29:22;;;;;;;;;;;;;;;;;;5063873;28;20753;-83
2021/01/16 03:31:48;;;;;;;;;;;;;;;;;;5072918;28;20395;-82
2021/01/16 03:34:15;;;;;;;;;;;;;;;;;;5067817;28;20425;-83
2021/01/16 03:36:41;;;;;;;;;;;;;;;;;;5066010;28;20435;-82
2021/01/16 03:39:08;;;;;;;;;;;;;;;;;;5060243;28;20406;-82
2021/01/16 03:41:34;;;;;;;;;;;;;;;;;;5068634;28;20384;-83
2021/01/16 03:44:00;;;;;;;;;;;;;;;;;;5062819;28;20409;-82
2021/01/16 03:46:27;;;;;;;;;;;;;;;;;;5061902;28;20380;-83
2021/01/16 03:48:53;;;;;;;;;;;;;;;;;;5062465;28;20395;-83
2021/01/16 03:51:19;;;;;;;;;;;;;;;;;;5074896;28;20382;-82
2021/01/16 03:53:47;;;;;;;;;;;;;;;;;;5071671;28;20398;-82
2021/01/16 03:56:14;;;;;;;;;;;;;;;;;;5066518;28;20405;-82
2021/01/16 03:58:40;;;;;;;;;;;;;;;;;;5060262;28;20389;-83
2021/01/16 04:01:06;;;;;;;;;;;;;;;;;;5061433;28;20369;-83
2021/01/16 04:03:33;;;;;;;;;;;;;;;;;;5060789;28;20408;-83
2021/01/16 04:05:59;;;;;;;;;;;;;;;;;;5060720;28;20391;-83
2021/01/16 04:08:26;;;;;;;;;;;;;;;;;;5061182;28;20388;-83
2021/01/16 04:10:52;;;;;;;;;;;;;;;;;;5065447;28;20386;-83
2021/01/16 04:13:18;;;;;;;;;;;;;;;;;;5080717;28;20410;-83
2021/01/16 04:15:45;;;;;;;;;;;;;;;;;;5080642;28;20881;-83
2021/01/16 04:18:11;;;;;;;;;;;;;;;;;;5081109;28;20386;-83
2021/01/16 04:20:38;;;;;;;;;;;;;;;;;;5081534;28;20370;-83
2021/01/16 04:23:04;;;;;;;;;;;;;;;;;;5081278;28;20485;-83
2021/01/16 04:25:30;;;;;;;;;;;;;;;;;;5074651;28;20377;-84
2021/01/16 04:27:57;;;;;;;;;;;;;;;;;;5070372;28;20385;-85
2021/01/16 04:30:23;;;;;;;;;;;;;;;;;;5060518;28;21014;-84
2021/01/16 04:32:49;;;;;;;;;;;;;;;;;;5060555;28;20398;-84
2021/01/16 04:35:16;;;;;;;;;;;;;;;;;;5061581;28;20411;-85
2021/01/16 04:37:42;;;;;;;;;;;;;;;;;;5081640;28;20386;-84
2021/01/16 04:40:09;;;;;;;;;;;;;;;;;;5070994;28;20392;-85
2021/01/16 04:42:35;;;;;;;;;;;;;;;;;;5061656;28;20385;-85
2021/01/16 04:45:01;;;;;;;;;;;;;;;;;;5069398;28;20412;-85
2021/01/16 04:47:28;;;;;;;;;;;;;;;;;;5062316;28;20780;-85
2021/01/16 04:49:54;;;;;;;;;;;;;;;;;;5063481;28;20573;-84
2021/01/16 04:52:21;;;;;;;;;;;;;;;;;;5071172;28;20384;-84
2021/01/16 04:54:47;;;;;;;;;;;;;;;;;;5080843;28;20436;-84
2021/01/16 04:57:13;;;;;;;;;;;;;;;;;;5081464;28;20381;-85
2021/01/16 04:59:40;;;;;;;;;;;;;;;;;;5084339;28;20386;-84
2021/01/16 05:02:06;;;;;;;;;;;;;;;;;;5066186;28;20388;-84
2021/01/16 05:04:32;;;;;;;;;;;;;;;;;;5067120;28;20435;-84
2021/01/16 05:06:59;;;;;;;;;;;;;;;;;;5080646;28;20362;-84
2021/01/16 05:09:25;;;;;;;;;;;;;;;;;;5080838;28;20393;-84
2021/01/16 05:11:52;;;;;;;;;;;;;;;;;;5077454;28;20353;-84
2021/01/16 05:14:18;;;;;;;;;;;;;;;;;;5072126;28;20942;-84
2021/01/16 05:16:44;;;;;;;;;;;;;;;;;;5082158;28;20416;-84
2021/01/16 05:19:11;;;;;;;;;;;;;;;;;;5075301;28;20387;-84
2021/01/16 05:21:37;;;;;;;;;;;;;;;;;;5069163;28;20376;-84
2021/01/16 05:24:03;;;;;;;;;;;;;;;;;;5064482;28;20412;-84
2021/01/16 05:26:30;;;;;;;;;;;;;;;;;;5066584;28;20385;-84
2021/01/16 05:28:56;;;;;;;;;;;;;;;;;;5071859;28;20381;-84
2021/01/16 05:31:23;;;;;;;;;;;;;;;;;;5069821;28;20378;-85
2021/01/16 05:33:49;;;;;;;;;;;;;;;;;;5065344;28;20423;-85
2021/01/16 05:36:15;;;;;;;;;;;;;;;;;;5066126;28;20418;-85
2021/01/16 05:38:42;;;;;;;;;;;;;;;;;;5066130;28;20392;-85
2021/01/16 05:41:08;;;;;;;;;;;;;;;;;;5066352;28;20381;-84
2021/01/16 05:43:34;;;;;;;;;;;;;;;;;;5076578;28;20873;-84
2021/01/16 05:46:01;;;;;;;;;;;;;;;;;;5083513;28;20403;-84
2021/01/16 05:48:27;;;;;;;;;;;;;;;;;;5067556;28;20431;-85
2021/01/16 05:50:53;;;;;;;;;;;;;;;;;;5065270;28;20400;-84
2021/01/16 05:53:20;;;;;;;;;;;;;;;;;;5080264;28;20385;-84
2021/01/16 05:55:46;;;;;;;;;;;;;;;;;;5072031;28;20396;-84
2021/01/16 05:58:13;;;;;;;;;;;;;;;;;;5073374;28;20337;-84
2021/01/16 06:00:39;;;;;;;;;;;;;;;;;;5065359;28;20719;-85
2021/01/16 06:03:05;;;;;;;;;;;;;;;;;;5067124;28;20372;-84
2021/01/16 06:05:32;;;;;;;;;;;;;;;;;;5069427;28;20336;-85
2021/01/16 06:07:58;;;;;;;;;;;;;;;;;;5067177;28;20358;-84
2021/01/16 06:10:25;;;;;;;;;;;;;;;;;;5066961;28;20427;-85
2021/01/16 06:12:51;;;;;;;;;;;;;;;;;;5067501;28;20894;-84
2021/01/16 06:15:17;;;;;;;;;;;;;;;;;;5069537;28;20408;-84
2021/01/16 06:17:44;;;;;;;;;;;;;;;;;;5071859;28;20348;-84
2021/01/16 06:20:10;;;;;;;;;;;;;;;;;;5066764;28;20365;-84
2021/01/16 06:22:36;;;;;;;;;;;;;;;;;;5066305;28;20327;-84
2021/01/16 06:25:03;;;;;;;;;;;;;;;;;;5076842;28;20349;-84
2021/01/16 06:27:29;;;;;;;;;;;;;;;;;;5079425;28;20261;-84
2021/01/16 06:29:56;;;;;;;;;;;;;;;;;;5077906;28;20336;-84
2021/01/16 06:32:22;;;;;;;;;;;;;;;;;;5083182;28;20382;-85
2021/01/16 06:34:48;;;;;;;;;;;;;;;;;;5089265;28;20768;-84
2021/01/16 06:37:15;;;;;;;;;;;;;;;;;;5076617;28;20288;-83
2021/01/16 06:39:41;;;;;;;;;;;;;;;;;;5087772;28;20356;-84
2021/01/16 06:42:07;;;;;;;;;;;;;;;;;;5070895;28;20655;-84
2021/01/16 06:44:34;;;;;;;;;;;;;;;;;;5067729;28;20352;-84
2021/01/16 06:47:00;;;;;;;;;;;;;;;;;;5079622;28;20561;-83
2021/01/16 06:49:27;;;;;;;;;;;;;;;;;;5070048;28;20202;-84
2021/01/16 06:51:53;;;;;;;;;;;;;;;;;;5093236;28;20374;-83
2021/01/16 06:54:19;;;;;;;;;;;;;;;;;;5067614;28;20315;-84
2021/01/16 06:56:46;;;;;;;;;;;;;;;;;;5067638;28;20299;-84
2021/01/16 06:59:12;;;;;;;;;;;;;;;;;;5074018;28;20544;-84
2021/01/16 07:01:38;;;;;;;;;;;;;;;;;;5072337;28;20104;-84
2021/01/16 07:04:05;;;;;;;;;;;;;;;;;;5084489;28;20260;-84
2021/01/16 07:06:32;;;;;;;;;;;;;;;;;;5071992;28;20319;-84
2021/01/16 07:08:58;;;;;;;;;;;;;;;;;;5082978;28;20463;-84
2021/01/16 07:11:25;;;;;;;;;;;;;;;;;;5069913;28;20164;-84
2021/01/16 07:13:51;;;;;;;;;;;;;;;;;;5067429;28;19920;-84
2021/01/16 07:16:17;;;;;;;;;;;;;;;;;;5065205;28;19943;-84
2021/01/16 07:18:44;;;;;;;;;;;;;;;;;;5070885;28;19931;-82
2021/01/16 07:21:10;;;;;;;;;;;;;;;;;;5077191;28;19921;-83
2021/01/16 07:23:37;;;;;;;;;;;;;;;;;;5078991;28;20372;-83
2021/01/16 07:26:03;;;;;;;;;;;;;;;;;;5073080;28;19920;-83
2021/01/16 07:28:29;;;;;;;;;;;;;;;;;;5071763;28;20008;-84
2021/01/16 07:30:56;;;;;;;;;;;;;;;;;;5064322;28;19921;-83
2021/01/16 07:33:22;;;;;;;;;;;;;;;;;;5074840;28;19973;-84
2021/01/16 07:35:49;;;;;;;;;;;;;;;;;;5068001;28;19946;-84
2021/01/16 07:38:15;;;;;;;;;;;;;;;;;;5066483;28;19921;-83
2021/01/16 07:40:42;;;;;;;;;;;;;;;;;;5067082;28;19920;-85
2021/01/16 07:43:08;;;;;;;;;;;;;;;;;;5066163;28;19920;-82
2021/01/16 07:45:37;;;;;;;;;;;;;;;;;;5063206;28;20300;-82
2021/01/16 07:48:03;;;;;;;;;;;;;;;;;;5060421;28;20365;-82
2021/01/16 07:50:29;;;;;;;;;;;;;;;;;;5059296;28;19921;-82
2021/01/16 07:52:56;;;;;;;;;;;;;;;;;;5068476;28;20374;-82
2021/01/16 07:55:22;;;;;;;;;;;;;;;;;;5069075;28;19927;-83
2021/01/16 07:57:49;;;;;;;;;;;;;;;;;;5058719;28;19921;-84
2021/01/16 08:00:15;;;;;;;;;;;;;;;;;;5068405;28;19946;-81
2021/01/16 08:02:41;;;;;;;;;;;;;;;;;;5078219;28;20361;-84
2021/01/16 08:05:08;;;;;;;;;;;;;;;;;;5086492;28;19921;-81
2021/01/16 08:07:34;;;;;;;;;;;;;;;;;;5088664;28;19924;-81
2021/01/16 08:10:01;;;;;;;;;;;;;;;;;;5088191;28;19990;-81
2021/01/16 08:12:27;;;;;;;;;;;;;;;;;;5069955;28;19935;-81
2021/01/16 08:14:53;;;;;;;;;;;;;;;;;;5076714;28;19943;-82
2021/01/16 08:17:21;;;;;;;;;;;;;;;;;;5067766;28;19947;-82
2021/01/16 08:19:47;;;;;;;;;;;;;;;;;;5069196;28;19966;-81
2021/01/16 08:22:14;;;;;;;;;;;;;;;;;;5077083;28;19931;-82
2021/01/16 08:24:40;;;;;;;;;;;;;;;;;;5087694;28;19928;-82
2021/01/16 08:27:06;;;;;;;;;;;;;;;;;;5091377;28;19920;-84
2021/01/16 08:29:33;;;;;;;;;;;;;;;;;;5089446;28;19920;-82
2021/01/16 08:31:59;;;;;;;;;;;;;;;;;;5088832;28;19927;-81
2021/01/16 08:34:25;;;;;;;;;;;;;;;;;;5086410;28;19927;-81
2021/01/16 08:36:52;;;;;;;;;;;;;;;;;;5087426;28;19927;-81
2021/01/16 08:39:18;;;;;;;;;;;;;;;;;;5087203;28;19928;-81
2021/01/16 08:41:45;;;;;;;;;;;;;;;;;;5087165;28;19943;-81
2021/01/16 08:44:11;;;;;;;;;;;;;;;;;;5094415;28;19970;-80
2021/01/16 08:46:37;;;;;;;;;;;;;;;;;;5096937;28;19942;-81
2021/01/16 08:49:04;;;;;;;;;;;;;;;;;;5081922;28;19931;-81
2021/01/16 08:51:30;;;;;;;;;;;;;;;;;;5065227;28;19921;-83
2021/01/16 08:53:57;;;;;;;;;;;;;;;;;;5072381;28;19925;-81
2021/01/16 08:56:23;;;;;;;;;;;;;;;;;;5065139;28;19927;-82
2021/01/16 08:58:49;;;;;;;;;;;;;;;;;;5064291;28;19924;-81
2021/01/16 09:01:16;;;;;;;;;;;;;;;;;;5063996;28;19944;-81
2021/01/16 09:03:42;;;;;;;;;;;;;;;;;;5064232;28;20269;-83
2021/01/16 09:06:08;;;;;;;;;;;;;;;;;;5079480;28;19927;-82
2021/01/16 09:08:35;;;;;;;;;;;;;;;;;;5085071;28;19920;-81
2021/01/16 09:11:01;;;;;;;;;;;;;;;;;;5074928;28;20434;-82
2021/01/16 09:13:28;;;;;;;;;;;;;;;;;;5063786;28;19925;-82
2021/01/16 09:26:54;;;;;;;;;;;;;;;;;;5023450;28;20306;-83
2021/01/16 09:40:24;;;;;;;;;;;;;;;;;;4946802;29;20022;-83
2021/01/16 09:42:51;;;;;;;;;;;;;;;;;;4946584;29;20311;-84
2021/01/16 09:45:17;;;;;;;;;;;;;;;;;;4945939;29;19939;-83
2021/01/16 09:47:44;;;;;;;;;;;;;;;;;;4946038;29;19927;-85
2021/01/16 09:50:11;;;;;;;;;;;;;;;;;;4942189;29;19924;-83
2021/01/16 09:52:37;;;;;;;;;;;;;;;;;;4948257;29;20372;-83
2021/01/16 09:55:03;;;;;;;;;;;;;;;;;;4953303;29;19926;-83
2021/01/16 09:57:30;;;;;;;;;;;;;;;;;;4966782;28;19930;-83
2021/01/16 09:59:56;;;;;;;;;;;;;;;;;;4968177;28;20013;-83
2021/01/16 10:02:23;;;;;;;;;;;;;;;;;;4970766;28;19906;-83
2021/01/16 10:04:50;;;;;;;;;;;;;;;;;;4975472;28;20368;-83
2021/01/16 10:07:16;;;;;;;;;;;;;;;;;;5006083;28;19921;-81
2021/01/16 10:09:43;;;;;;;;;;;;;;;;;;5018995;28;19921;-80
2021/01/16 10:12:09;;;;;;;;;;;;;;;;;;5025924;28;19929;-83
2021/01/16 10:14:35;;;;;;;;;;;;;;;;;;5025953;28;20033;-83
2021/01/16 10:17:02;;;;;;;;;;;;;;;;;;5031042;28;19947;-82
2021/01/16 10:19:28;;;;;;;;;;;;;;;;;;5022255;28;19922;-83
2021/01/16 10:21:54;;;;;;;;;;;;;;;;;;5022827;28;19922;-82
2021/01/16 10:24:21;;;;;;;;;;;;;;;;;;5033255;28;19921;-82
2021/01/16 10:26:47;;;;;;;;;;;;;;;;;;5037053;28;19921;-82
2021/01/16 10:29:14;;;;;;;;;;;;;;;;;;5054517;28;19925;-82
2021/01/16 10:31:40;;;;;;;;;;;;;;;;;;5043750;28;19921;-83
2021/01/16 10:34:06;;;;;;;;;;;;;;;;;;5044546;28;19922;-82
2021/01/16 10:36:33;;;;;;;;;;;;;;;;;;5043980;28;19921;-82
2021/01/16 10:39:00;;;;;;;;;;;;;;;;;;5044458;28;19974;-83
2021/01/16 10:41:26;;;;;;;;;;;;;;;;;;5044597;28;19976;-83
2021/01/16 10:43:52;;;;;;;;;;;;;;;;;;5045155;28;19925;-83
2021/01/16 10:46:31;;;;;;;;;;;;;;;;;;5070300;28;19920;-83
2021/01/16 10:48:58;;;;;;;;;;;;;;;;;;5080344;28;19921;-85
2021/01/16 10:51:24;;;;;;;;;;;;;;;;;;5062680;28;19978;-83
2021/01/16 10:53:51;;;;;;;;;;;;;;;;;;5063228;28;19924;-84
2021/01/16 10:56:17;;;;;;;;;;;;;;;;;;5064007;28;20381;-84
2021/01/16 10:58:44;;;;;;;;;;;;;;;;;;5064214;28;19952;-84
2021/01/16 11:01:10;;;;;;;;;;;;;;;;;;5063959;28;20011;-84
2021/01/16 11:03:37;;;;;;;;;;;;;;;;;;5063233;28;19920;-83
2021/01/16 11:06:04;;;;;;;;;;;;;;;;;;5071948;28;19912;-83
2021/01/16 11:08:30;;;;;;;;;;;;;;;;;;5097568;28;19904;-84
2021/01/16 11:10:57;;;;;;;;;;;;;;;;;;5084088;28;19920;-83
2021/01/16 11:13:23;;;;;;;;;;;;;;;;;;5080362;28;19908;-82
2021/01/16 11:15:52;;;;;;;;;;;;;;;;;;5069201;28;19921;-81
2021/01/16 11:18:18;;;;;;;;;;;;;;;;;;5043941;28;19921;-84
2021/01/16 11:20:44;;;;;;;;;;;;;;;;;;5043670;28;19921;-84
2021/01/16 11:23:11;;;;;;;;;;;;;;;;;;5063498;28;19967;-84
2021/01/16 11:25:37;;;;;;;;;;;;;;;;;;5067717;28;20074;-84
2021/01/16 11:28:04;;;;;;;;;;;;;;;;;;5066519;28;19932;-85
2021/01/16 11:30:30;;;;;;;;;;;;;;;;;;5067976;28;19921;-85
2021/01/16 11:32:56;;;;;;;;;;;;;;;;;;5068302;28;20439;-85
2021/01/16 11:35:25;;;;;;;;;;;;;;;;;;5070321;28;19921;-85
2021/01/16 11:37:51;;;;;;;;;;;;;;;;;;5079566;28;19916;-84
2021/01/16 11:40:18;;;;;;;;;;;;;;;;;;5080307;28;19905;-83
2021/01/16 11:42:44;;;;;;;;;;;;;;;;;;5080473;28;19925;-84
2021/01/16 11:45:10;;;;;;;;;;;;;;;;;;5080312;28;19905;-83
2021/01/16 11:47:37;;;;;;;;;;;;;;;;;;5080110;28;19912;-83
2021/01/16 11:50:06;;;;;;;;;;;;;;;;;;5077275;28;20345;-84
2021/01/16 11:52:32;;;;;;;;;;;;;;;;;;5067175;28;19921;-84
2021/01/16 11:55:00;;;;;;;;;;;;;;;;;;5062741;28;21274;-84
2021/01/16 11:57:27;;;;;;;;;;;;;;;;;;5065463;28;19925;-84
2021/01/16 11:59:53;;;;;;;;;;;;;;;;;;5063925;28;19925;-84
2021/01/16 12:02:19;;;;;;;;;;;;;;;;;;5069968;28;19924;-84
2021/01/16 12:04:46;;;;;;;;;;;;;;;;;;5073601;28;19931;-83
2021/01/16 12:07:12;;;;;;;;;;;;;;;;;;5065686;28;19925;-84
2021/01/16 12:09:39;;;;;;;;;;;;;;;;;;5065914;28;19982;-85
2021/01/16 12:12:05;;;;;;;;;;;;;;;;;;5062429;28;19936;-84
2021/01/16 12:14:32;;;;;;;;;;;;;;;;;;5046511;28;19929;-84
2021/01/16 12:16:58;;;;;;;;;;;;;;;;;;5053057;28;19925;-84
2021/01/16 12:19:24;;;;;;;;;;;;;;;;;;5065571;28;20023;-84
2021/01/16 12:21:51;;;;;;;;;;;;;;;;;;5076016;28;19924;-83
2021/01/16 12:24:17;;;;;;;;;;;;;;;;;;5076765;28;19925;-83
2021/01/16 12:26:44;;;;;;;;;;;;;;;;;;5051740;28;19929;-84
2021/01/16 12:29:10;;;;;;;;;;;;;;;;;;5064542;28;19932;-84
2021/01/16 12:34:20;;;;;;;;;;;;;;;;;;5055443;28;19921;-83
2021/01/16 12:36:46;;;;;;;;;;;;;;;;;;5057580;28;19924;-84
2021/01/16 12:39:13;;;;;;;;;;;;;;;;;;5060682;28;19932;-85
2021/01/16 12:41:39;;;;;;;;;;;;;;;;;;5059450;28;19932;-84
2021/01/16 12:44:05;;;;;;;;;;;;;;;;;;5059457;28;19940;-84
2021/01/16 12:46:32;;;;;;;;;;;;;;;;;;5059772;28;19928;-84
2021/01/16 12:48:59;;;;;;;;;;;;;;;;;;5062170;28;19925;-84
2021/01/16 12:51:26;;;;;;;;;;;;;;;;;;5079414;28;19932;-83
2021/01/16 12:53:53;;;;;;;;;;;;;;;;;;5079651;28;19931;-84
2021/01/16 12:56:21;;;;;;;;;;;;;;;;;;5062254;28;20400;-83
2021/01/16 12:58:47;;;;;;;;;;;;;;;;;;5059851;28;19924;-83
2021/01/16 13:01:13;;;;;;;;;;;;;;;;;;5044471;28;19929;-85
2021/01/16 13:03:40;;;;;;;;;;;;;;;;;;5058234;28;19974;-83
2021/01/16 13:06:06;;;;;;;;;;;;;;;;;;5060545;28;20373;-84
2021/01/16 13:08:33;;;;;;;;;;;;;;;;;;5061486;28;19931;-83
2021/01/16 13:11:00;;;;;;;;;;;;;;;;;;5061291;28;19929;-84
2021/01/16 13:13:26;;;;;;;;;;;;;;;;;;5064466;28;19929;-83
2021/01/16 13:15:54;;;;;;;;;;;;;;;;;;5066102;28;19940;-83
2021/01/16 13:18:21;;;;;;;;;;;;;;;;;;5060035;28;19925;-83
2021/01/16 13:20:47;;;;;;;;;;;;;;;;;;5059377;28;19964;-84
2021/01/16 13:23:13;;;;;;;;;;;;;;;;;;5057078;28;19931;-84
2021/01/16 13:25:40;;;;;;;;;;;;;;;;;;5059444;28;19929;-86
2021/01/16 13:28:06;;;;;;;;;;;;;;;;;;5071266;22;20412;-85
2021/01/16 13:30:33;;;;;;;;;;;;;;;;;;5054605;28;19929;-81
2021/01/16 13:32:59;;;;;;;;;;;;;;;;;;5071875;28;19928;-83
2021/01/16 13:35:25;;;;;;;;;;;;;;;;;;5073952;28;19925;-84
2021/01/16 13:37:52;;;;;;;;;;;;;;;;;;5055538;28;19925;-83
2021/01/16 13:40:20;;;;;;;;;;;;;;;;;;5052501;28;19928;-82
2021/01/16 13:42:46;;;;;;;;;;;;;;;;;;5055716;28;20340;-82
2021/01/16 13:45:12;;;;;;;;;;;;;;;;;;5051678;28;19925;-83
2021/01/16 13:47:39;;;;;;;;;;;;;;;;;;5054667;28;19952;-83
2021/01/16 13:50:05;;;;;;;;;;;;;;;;;;5056129;28;19928;-82
2021/01/16 13:52:32;;;;;;;;;;;;;;;;;;5053043;28;19932;-83
2021/01/16 13:54:58;;;;;;;;;;;;;;;;;;5053912;28;19925;-83
2021/01/16 13:57:25;;;;;;;;;;;;;;;;;;5055029;28;19925;-83
2021/01/16 13:59:51;;;;;;;;;;;;;;;;;;5054948;28;19954;-83
2021/01/16 14:02:18;;;;;;;;;;;;;;;;;;5057290;28;19979;-83
2021/01/16 14:04:44;;;;;;;;;;;;;;;;;;5052374;28;19925;-84
2021/01/16 14:07:10;;;;;;;;;;;;;;;;;;5058026;28;19925;-84
2021/01/16 14:09:37;;;;;;;;;;;;;;;;;;5058702;28;20278;-83
2021/01/16 14:12:03;;;;;;;;;;;;;;;;;;5059382;28;19925;-86
2021/01/16 14:14:31;;;;;;;;;;;;;;;;;;5060001;28;20282;-85
2021/01/16 14:16:57;;;;;;;;;;;;;;;;;;5063143;28;19932;-84
2021/01/16 14:19:24;;;;;;;;;;;;;;;;;;5064720;28;20324;-82
2021/01/16 14:21:50;;;;;;;;;;;;;;;;;;5061121;28;19931;-83
2021/01/16 14:24:16;;;;;;;;;;;;;;;;;;5058965;28;19936;-84
2021/01/16 14:26:43;;;;;;;;;;;;;;;;;;5063017;28;19925;-82
2021/01/16 14:29:09;;;;;;;;;;;;;;;;;;5054327;28;19932;-82
2021/01/16 14:31:36;;;;;;;;;;;;;;;;;;5057829;28;19929;-82
2021/01/16 14:34:02;;;;;;;;;;;;;;;;;;5062310;28;19932;-82
2021/01/16 14:36:28;;;;;;;;;;;;;;;;;;5061275;28;19928;-82
2021/01/16 14:38:55;;;;;;;;;;;;;;;;;;5053282;28;19925;-83
2021/01/16 14:41:21;;;;;;;;;;;;;;;;;;5060723;28;19925;-81
2021/01/16 14:43:47;;;;;;;;;;;;;;;;;;5058449;28;19925;-84
2021/01/16 14:46:14;;;;;;;;;;;;;;;;;;5063064;28;20379;-84
2021/01/16 14:48:40;;;;;;;;;;;;;;;;;;5059900;28;19986;-83
2021/01/16 14:51:08;;;;;;;;;;;;;;;;;;5067475;28;19947;-83
2021/01/16 14:56:21;;;;;;;;;;;;;;;;;;5061487;28;19925;-83
2021/01/16 14:58:47;;;;;;;;;;;;;;;;;;5052558;28;19932;-83
2021/01/16 15:01:14;;;;;;;;;;;;;;;;;;5056373;28;19929;-84
2021/01/16 15:03:40;;;;;;;;;;;;;;;;;;5057455;28;20381;-86
2021/01/16 15:06:07;;;;;;;;;;;;;;;;;;5063034;28;19948;-84
2021/01/16 15:08:33;;;;;;;;;;;;;;;;;;5069393;28;19932;-84
2021/01/16 15:10:59;;;;;;;;;;;;;;;;;;5047539;28;19925;-82
2021/01/16 15:13:26;;;;;;;;;;;;;;;;;;5044512;28;19925;-83
2021/01/16 15:15:53;;;;;;;;;;;;;;;;;;5067321;28;20361;-84
2021/01/16 15:18:19;;;;;;;;;;;;;;;;;;5061562;28;19936;-84
2021/01/16 15:20:45;;;;;;;;;;;;;;;;;;5062690;28;19925;-82
2021/01/16 15:23:12;;;;;;;;;;;;;;;;;;5070281;28;19924;-82
2021/01/16 15:25:38;;;;;;;;;;;;;;;;;;5057013;28;19928;-84
2021/01/16 15:28:05;;;;;;;;;;;;;;;;;;5058488;28;19925;-85
2021/01/16 15:30:31;;;;;;;;;;;;;;;;;;5039168;28;20362;-85
2021/01/16 15:32:57;;;;;;;;;;;;;;;;;;5073797;28;19909;-85
2021/01/16 15:35:24;;;;;;;;;;;;;;;;;;5055929;28;19925;-84
2021/01/16 15:37:50;;;;;;;;;;;;;;;;;;5061119;28;20396;-85
2021/01/16 15:40:16;;;;;;;;;;;;;;;;;;5061305;28;19932;-83
2021/01/16 15:42:43;;;;;;;;;;;;;;;;;;5061296;28;19975;-84
2021/01/16 15:45:09;;;;;;;;;;;;;;;;;;5058527;28;20333;-82
2021/01/16 15:47:36;;;;;;;;;;;;;;;;;;5058766;28;19932;-86
2021/01/16 15:50:02;;;;;;;;;;;;;;;;;;5060610;28;19925;-85
2021/01/16 15:52:28;;;;;;;;;;;;;;;;;;5062352;28;20313;-84
2021/01/16 15:54:55;;;;;;;;;;;;;;;;;;5067066;28;19925;-85
2021/01/16 15:57:21;;;;;;;;;;;;;;;;;;5066364;28;19929;-85
2021/01/16 15:59:47;;;;;;;;;;;;;;;;;;5061429;28;19924;-85
2021/01/16 16:02:14;;;;;;;;;;;;;;;;;;5064332;28;19925;-85
2021/01/16 16:04:42;;;;;;;;;;;;;;;;;;5067767;28;19925;-84
2021/01/16 16:07:09;;;;;;;;;;;;;;;;;;5060673;28;19933;-86
2021/01/16 16:09:36;;;;;;;;;;;;;;;;;;5051850;28;19987;-84
2021/01/16 16:12:02;;;;;;;;;;;;;;;;;;5050012;28;19932;-85
2021/01/16 16:14:29;;;;;;;;;;;;;;;;;;5051223;28;19933;-84
2021/01/16 16:16:55;;;;;;;;;;;;;;;;;;5053602;28;19931;-85
2021/01/16 16:19:21;;;;;;;;;;;;;;;;;;5056998;28;19971;-86
2021/01/16 16:21:49;;;;;;;;;;;;;;;;;;5060436;28;19925;-85
2021/01/16 16:24:16;;;;;;;;;;;;;;;;;;5054931;28;19925;-86
2021/01/16 16:26:42;;;;;;;;;;;;;;;;;;5058876;28;19932;-86
2021/01/16 16:29:09;;;;;;;;;;;;;;;;;;5058859;28;19936;-85
2021/01/16 16:31:35;;;;;;;;;;;;;;;;;;5058696;28;19979;-84
2021/01/16 16:34:02;;;;;;;;;;;;;;;;;;5048075;28;19933;-83
2021/01/16 16:36:28;;;;;;;;;;;;;;;;;;5051280;28;19944;-83
2021/01/16 16:38:55;;;;;;;;;;;;;;;;;;5055787;28;20436;-84
2021/01/16 16:41:21;;;;;;;;;;;;;;;;;;5058803;28;19940;-84
2021/01/16 16:46:29;;;;;;;;;;;;;;;;;;5062134;28;19952;-83
2021/01/16 16:48:55;;;;;;;;;;;;;;;;;;5054768;28;20020;-84
2021/01/16 16:51:21;;;;;;;;;;;;;;;;;;5054613;28;19932;-84
2021/01/16 16:56:41;;;;;;;;;;;;;;;;;;5043259;28;19925;-82
2021/01/16 17:01:49;;;;;;;;;;;;;;;;;;5049582;28;20266;-82
2021/01/16 17:04:16;;;;;;;;;;;;;;;;;;5053343;28;19925;-82
2021/01/16 17:06:48;;;;;;;;;;;;;;;;;;5056481;28;20374;-82
2021/01/16 17:09:25;;;;;;;;;;;;;;;;;;5039546;28;19970;-82
2021/01/16 17:11:59;;;;;;;;;;;;;;;;;;5043954;28;20569;-83
2021/01/16 17:14:26;;;;;;;;;;;;;;;;;;5051397;28;19925;-83
2021/01/16 17:16:52;;;;;;;;;;;;;;;;;;5057664;28;19932;-83